Time;durP1;ratioP1;P1;durP2;ratioP2;P2;SDS_P1;SDS_P2;PMS_P1;PMS_P2;Temp;Humidity;BMP_temperature;BMP_pressure;BME280_temperature;BME280_humidity;BME280_pressure;Samples;Min_cycle;Max_cycle;Signal;HPM_P1;HPM_P2
2021/12/24 00:00:41;;;;;;;87.70;35.70;;;4.20;99.90;;;;;;4959444;23;20240;-93
2021/12/24 00:03:08;;;;;;;83.43;35.47;;;4.20;99.90;;;;;;4937006;29;20204;-94
2021/12/24 00:05:34;;;;;;;77.37;33.37;;;4.30;99.90;;;;;;4925774;29;20181;-93
2021/12/24 00:08:00;;;;;;;80.33;33.63;;;4.30;99.90;;;;;;4938810;29;20189;-93
2021/12/24 00:10:26;;;;;;;78.30;32.27;;;4.20;99.90;;;;;;4939575;29;20201;-94
2021/12/24 00:13:04;;;;;;;74.60;32.17;;;4.30;99.90;;;;;;4939829;29;20201;-93
2021/12/24 00:37:10;;;;;;;49.17;22.40;;;4.50;99.90;;;;;;4941093;29;20226;-95
2021/12/24 00:39:44;;;;;;;47.77;23.87;;;4.50;99.90;;;;;;4939236;28;20222;-93
2021/12/24 00:42:11;;;;;;;47.70;21.47;;;4.40;99.90;;;;;;4942707;29;20276;-94
2021/12/24 00:44:38;;;;;;;45.03;21.83;;;4.50;99.90;;;;;;4942834;29;20196;-94
2021/12/24 00:47:04;;;;;;;44.03;21.40;;;4.40;99.90;;;;;;4941934;29;20185;-94
2021/12/24 00:49:30;;;;;;;38.20;20.00;;;4.50;99.90;;;;;;4941711;28;20189;-94
2021/12/24 00:52:07;;;;;;;36.57;19.03;;;4.50;99.90;;;;;;4942336;29;20276;-93
2021/12/24 00:57:19;;;;;;;37.27;18.17;;;4.50;99.90;;;;;;4960003;29;20315;-94
2021/12/24 00:59:44;;;;;;;32.20;18.30;;;4.60;99.90;;;;;;4942071;29;20605;-94
2021/12/24 01:02:10;;;;;;;34.17;16.63;;;4.50;99.90;;;;;;4941511;29;20284;-94
2021/12/24 01:04:36;;;;;;;33.60;16.20;;;4.50;99.90;;;;;;4942255;29;20185;-94
2021/12/24 01:07:02;;;;;;;26.30;15.43;;;4.60;99.90;;;;;;4937670;29;20185;-95
2021/12/24 01:09:28;;;;;;;29.47;15.27;;;4.60;99.90;;;;;;4937837;29;20190;-94
2021/12/24 01:11:54;;;;;;;23.77;14.00;;;4.60;99.90;;;;;;4923147;29;20186;-94
2021/12/24 01:14:21;;;;;;;26.80;14.47;;;4.60;99.90;;;;;;4949054;28;20272;-93
2021/12/24 01:17:06;;;;;;;26.27;14.13;;;4.60;99.90;;;;;;4942140;29;20217;-93
2021/12/24 01:19:33;;;;;;;21.70;13.53;;;4.60;99.90;;;;;;4941972;29;20329;-95
2021/12/24 01:38:22;;;;;;;16.63;10.57;;;4.70;99.90;;;;;;4939395;28;20229;-92
2021/12/24 01:43:24;;;;;;;20.13;11.57;;;4.70;99.90;;;;;;4938856;29;20170;-95
2021/12/24 01:45:53;;;;;;;17.83;11.63;;;4.70;99.90;;;;;;4935912;29;20194;-94
2021/12/24 01:48:20;;;;;;;18.60;11.73;;;4.70;99.90;;;;;;4922661;29;20232;-94
2021/12/24 01:50:47;;;;;;;19.17;11.60;;;4.70;99.90;;;;;;4942127;28;20193;-94
2021/12/24 01:53:16;;;;;;;18.00;11.33;;;4.70;99.90;;;;;;4941754;29;20220;-95
2021/12/24 01:55:43;;;;;;;17.47;11.30;;;4.80;99.90;;;;;;4941693;29;20196;-94
2021/12/24 01:58:09;;;;;;;13.90;10.20;;;4.80;99.90;;;;;;4940065;29;20251;-94
2021/12/24 02:00:39;;;;;;;16.27;9.73;;;4.80;99.90;;;;;;4941085;29;20228;-93
2021/12/24 02:03:07;;;;;;;14.37;10.03;;;4.80;99.90;;;;;;4941155;29;20281;-94
2021/12/24 02:05:33;;;;;;;15.37;9.80;;;4.80;99.90;;;;;;4928402;29;20194;-94
2021/12/24 02:08:00;;;;;;;13.70;9.80;;;4.80;99.90;;;;;;4922061;29;20617;-94
2021/12/24 02:10:26;;;;;;;13.83;9.13;;;4.70;99.90;;;;;;4921960;29;20197;-95
2021/12/24 02:12:52;;;;;;;14.60;9.87;;;4.80;99.90;;;;;;4936392;29;20189;-94
2021/12/24 02:29:15;;;;;;;12.77;8.30;;;4.90;99.90;;;;;;4954586;29;20252;-93
2021/12/24 02:31:41;;;;;;;13.40;8.73;;;4.80;99.90;;;;;;4929595;29;20633;-94
2021/12/24 02:34:07;;;;;;;11.47;8.60;;;4.80;99.90;;;;;;4921698;29;20229;-94
2021/12/24 02:36:32;;;;;;;10.97;8.40;;;4.90;99.90;;;;;;4922027;28;20280;-93
2021/12/24 02:38:58;;;;;;;10.73;7.73;;;4.90;99.90;;;;;;4957598;29;20213;-93
2021/12/24 02:41:24;;;;;;;10.63;8.07;;;4.90;99.90;;;;;;4940496;29;20284;-93
2021/12/24 02:43:50;;;;;;;12.03;8.33;;;4.90;99.90;;;;;;4956714;28;20725;-93
2021/12/24 02:46:38;;;;;;;11.53;8.43;;;4.90;99.90;;;;;;4940279;29;20336;-94
2021/12/24 02:49:11;;;;;;;10.67;7.67;;;4.90;99.90;;;;;;4940167;29;20325;-94
2021/12/24 02:54:22;;;;;;;9.60;7.17;;;5.00;99.90;;;;;;4937997;29;20189;-93
2021/12/24 02:56:54;;;;;;;8.43;6.70;;;5.00;99.90;;;;;;4922199;29;20208;-94
2021/12/24 02:59:26;;;;;;;9.63;6.83;;;5.00;99.90;;;;;;4920860;29;20384;-94
2021/12/24 03:01:54;;;;;;;8.83;6.70;;;5.00;99.90;;;;;;4920914;29;20209;-94
2021/12/24 03:04:21;;;;;;;9.00;7.10;;;5.00;99.90;;;;;;4930246;29;20193;-94
2021/12/24 03:06:49;;;;;;;8.47;6.53;;;5.10;99.90;;;;;;4920921;29;20186;-93
2021/12/24 03:09:17;;;;;;;10.07;7.10;;;5.10;99.90;;;;;;4922576;29;20226;-93
2021/12/24 03:11:45;;;;;;;8.47;6.17;;;5.10;99.90;;;;;;4921187;29;20190;-94
2021/12/24 03:14:15;;;;;;;7.97;6.13;;;5.10;99.90;;;;;;4920988;29;20629;-93
2021/12/24 03:16:43;;;;;;;7.10;5.67;;;5.10;99.90;;;;;;4932440;29;20204;-93
2021/12/24 03:19:11;;;;;;;7.57;5.80;;;5.10;99.90;;;;;;4940035;29;20229;-94
2021/12/24 03:21:51;;;;;;;6.77;5.27;;;5.20;99.90;;;;;;4939863;29;20193;-94
2021/12/24 03:26:47;;;;;;;7.17;5.57;;;5.20;99.90;;;;;;4956992;29;20177;-94
2021/12/24 03:29:16;;;;;;;7.27;5.77;;;5.20;99.90;;;;;;4938518;29;20193;-93
2021/12/24 03:31:43;;;;;;;7.10;5.33;;;5.20;99.90;;;;;;4939853;29;20575;-94
2021/12/24 03:34:11;;;;;;;6.97;5.37;;;5.20;99.90;;;;;;4939621;29;20248;-93
2021/12/24 03:36:37;;;;;;;6.83;5.30;;;5.20;99.90;;;;;;4938673;29;20207;-93
2021/12/24 03:39:06;;;;;;;6.33;4.97;;;5.20;99.90;;;;;;4939544;29;20232;-94
2021/12/24 03:41:32;;;;;;;6.10;4.70;;;5.20;99.90;;;;;;4934069;29;20194;-93
2021/12/24 03:43:58;;;;;;;6.43;4.70;;;5.30;99.90;;;;;;4920794;29;20249;-93
2021/12/24 03:46:34;;;;;;;6.50;4.90;;;5.40;99.90;;;;;;4920348;29;20190;-94
2021/12/24 03:49:05;;;;;;;7.20;4.80;;;5.40;99.90;;;;;;4940804;29;20208;-94
2021/12/24 03:51:44;;;;;;;4.77;4.23;;;5.40;99.90;;;;;;4939612;29;20177;-93
2021/12/24 03:56:54;;;;;;;5.10;4.03;;;5.50;99.90;;;;;;4956915;29;20209;-94
2021/12/24 03:59:19;;;;;;;4.90;4.17;;;5.50;99.90;;;;;;4939244;29;20568;-93
2021/12/24 04:01:45;;;;;;;5.37;3.70;;;5.50;99.90;;;;;;4930006;29;20190;-93
2021/12/24 04:04:11;;;;;;;4.10;3.57;;;5.50;99.90;;;;;;4920453;29;20194;-94
2021/12/24 04:06:37;;;;;;;4.53;4.07;;;5.40;99.90;;;;;;4921415;29;20249;-95
2021/12/24 04:09:06;;;;;;;5.37;3.83;;;5.50;99.90;;;;;;4935206;29;20198;-94
2021/12/24 04:11:32;;;;;;;3.87;3.40;;;5.50;99.90;;;;;;4924204;29;20182;-93
2021/12/24 04:13:58;;;;;;;4.30;3.90;;;5.50;99.90;;;;;;4923850;28;20190;-94
2021/12/24 04:16:23;;;;;;;4.63;3.93;;;5.50;99.90;;;;;;4938268;29;20675;-93
2021/12/24 04:26:47;;;;;;;3.73;3.40;;;5.60;99.90;;;;;;4960326;29;20185;-94
2021/12/24 04:29:12;;;;;;;5.60;3.70;;;5.60;99.90;;;;;;4942189;29;20194;-94
2021/12/24 04:31:43;;;;;;;4.27;3.50;;;5.60;99.90;;;;;;4942604;29;20372;-93
2021/12/24 04:34:10;;;;;;;4.00;3.37;;;5.60;99.90;;;;;;4942484;29;20637;-94
2021/12/24 05:03:34;;;;;;;4.80;3.70;;;5.80;99.90;;;;;;4959660;29;20185;-94
2021/12/24 05:09:07;;;;;;;5.07;4.07;;;5.80;99.90;;;;;;4959465;28;20193;-94
2021/12/24 05:11:25;;;;;;;4.63;4.00;;;5.80;99.90;;;;;;4959018;29;20536;-94
2021/12/24 05:13:53;;;;;;;5.90;4.03;;;5.80;99.90;;;;;;4942136;29;20189;-94
2021/12/24 05:21:33;;;;;;;4.73;3.97;;;5.80;99.90;;;;;;4943139;28;20575;-94
2021/12/24 05:24:08;;;;;;;4.10;3.70;;;5.90;99.90;;;;;;4961083;28;20299;-93
2021/12/24 05:26:35;;;;;;;5.23;4.17;;;5.90;99.90;;;;;;4961285;28;20190;-93
2021/12/24 05:29:03;;;;;;;4.43;3.60;;;5.90;99.90;;;;;;4961071;28;20197;-93
2021/12/24 05:31:30;;;;;;;3.47;3.17;;;5.90;99.90;;;;;;4948976;29;20283;-93
2021/12/24 05:33:55;;;;;;;5.07;3.73;;;5.90;99.90;;;;;;4941775;29;20195;-94
2021/12/24 05:36:21;;;;;;;4.60;3.73;;;5.90;99.90;;;;;;4941613;29;20181;-94
2021/12/24 05:38:47;;;;;;;4.30;3.70;;;5.90;99.90;;;;;;4941616;29;20256;-94
2021/12/24 05:41:14;;;;;;;4.77;3.70;;;5.90;99.90;;;;;;4941511;29;20240;-93
2021/12/24 05:43:41;;;;;;;3.97;3.37;;;5.90;99.90;;;;;;4941424;29;20284;-94
2021/12/24 05:46:06;;;;;;;4.40;3.57;;;6.00;99.90;;;;;;4941254;29;20185;-94
2021/12/24 05:48:32;;;;;;;5.37;3.47;;;6.00;99.90;;;;;;4941675;29;20201;-94
2021/12/24 05:50:58;;;;;;;4.77;4.00;;;6.00;99.90;;;;;;4941569;29;20198;-94
2021/12/24 05:53:25;;;;;;;4.00;3.60;;;6.00;99.90;;;;;;4958727;29;20273;-94
2021/12/24 05:55:51;;;;;;;4.90;3.77;;;6.00;99.90;;;;;;4941375;29;20209;-94
2021/12/24 05:58:18;;;;;;;4.93;3.87;;;6.00;99.90;;;;;;4941312;29;20703;-93
2021/12/24 06:00:44;;;;;;;4.70;3.57;;;6.00;99.90;;;;;;4940746;29;20243;-94
2021/12/24 06:03:10;;;;;;;4.33;3.60;;;6.10;99.90;;;;;;4941230;29;20193;-94
2021/12/24 06:05:37;;;;;;;4.40;3.57;;;6.10;99.90;;;;;;4941372;29;20185;-94
2021/12/24 06:08:04;;;;;;;4.60;3.73;;;6.10;99.90;;;;;;4941112;29;20248;-93
2021/12/24 06:10:31;;;;;;;4.60;3.70;;;6.10;99.90;;;;;;4941219;29;20194;-94
2021/12/24 06:12:57;;;;;;;4.93;3.90;;;6.10;99.90;;;;;;4940997;29;20189;-94
2021/12/24 06:15:25;;;;;;;4.37;3.83;;;6.10;99.90;;;;;;4937006;29;20202;-93
2021/12/24 06:17:57;;;;;;;5.10;3.97;;;6.10;99.90;;;;;;4921993;29;20648;-93
2021/12/24 06:20:25;;;;;;;5.23;4.60;;;6.20;99.90;;;;;;4921931;29;20281;-93
2021/12/24 06:22:52;;;;;;;5.33;4.50;;;6.20;99.90;;;;;;4921884;29;20190;-94
2021/12/24 06:25:19;;;;;;;6.73;5.27;;;6.20;99.90;;;;;;4922208;29;20194;-94
2021/12/24 06:27:47;;;;;;;5.90;4.97;;;6.20;99.90;;;;;;4933109;28;20651;-95
2021/12/24 06:30:14;;;;;;;8.47;5.30;;;6.20;99.90;;;;;;4959754;28;20643;-94
2021/12/24 06:32:40;;;;;;;7.60;5.93;;;6.20;99.90;;;;;;4959898;28;20185;-94
2021/12/24 06:35:09;;;;;;;7.20;5.00;;;6.20;99.90;;;;;;4959769;28;20204;-94
2021/12/24 06:37:37;;;;;;;8.07;5.87;;;6.30;99.90;;;;;;4959877;28;20187;-93
2021/12/24 06:40:04;;;;;;;8.93;6.03;;;6.30;99.90;;;;;;4959676;28;20278;-93
2021/12/24 06:42:29;;;;;;;7.37;5.50;;;6.30;99.90;;;;;;4950913;29;20193;-94
2021/12/24 06:44:55;;;;;;;6.87;5.27;;;6.40;99.90;;;;;;4940447;29;20208;-94
2021/12/24 06:47:21;;;;;;;10.83;5.83;;;6.40;99.90;;;;;;4940196;29;20185;-93
2021/12/24 06:49:47;;;;;;;9.67;6.33;;;6.30;99.90;;;;;;4940534;29;20182;-95
2021/12/24 06:52:12;;;;;;;7.13;5.37;;;6.40;99.90;;;;;;4957545;29;20185;-94
2021/12/24 06:54:39;;;;;;;8.53;6.10;;;6.50;99.90;;;;;;4950361;28;20200;-94
2021/12/24 06:57:12;;;;;;;7.93;6.13;;;6.50;99.90;;;;;;4959041;28;20220;-94
2021/12/24 06:59:38;;;;;;;8.87;6.83;;;6.50;99.90;;;;;;4958425;28;20319;-94
2021/12/24 07:02:04;;;;;;;9.57;6.83;;;6.50;99.90;;;;;;4976382;28;20219;-93
2021/12/24 07:04:29;;;;;;;11.77;7.87;;;6.60;99.90;;;;;;4959691;28;20196;-94
2021/12/24 07:06:55;;;;;;;11.87;7.63;;;6.60;99.90;;;;;;4959423;28;20267;-94
2021/12/24 07:09:21;;;;;;;12.50;8.37;;;6.60;99.90;;;;;;4959537;28;20193;-94
2021/12/24 07:11:48;;;;;;;13.37;7.93;;;6.70;99.90;;;;;;4959400;28;20529;-93
2021/12/24 07:14:14;;;;;;;12.30;7.93;;;6.70;99.90;;;;;;4957340;28;20283;-95
2021/12/24 07:16:39;;;;;;;15.77;8.73;;;6.70;99.90;;;;;;4939670;29;20708;-93
2021/12/24 07:19:05;;;;;;;14.13;8.93;;;6.80;99.90;;;;;;4958335;28;20217;-94
2021/12/24 07:21:34;;;;;;;16.93;9.80;;;6.90;99.90;;;;;;4959380;28;20185;-93
2021/12/24 07:24:02;;;;;;;21.33;10.40;;;7.00;99.90;;;;;;4959243;28;20189;-93
2021/12/24 07:26:28;;;;;;;19.17;10.93;;;7.00;99.90;;;;;;4945870;29;20208;-92
2021/12/24 07:28:53;;;;;;;19.30;10.77;;;7.30;99.90;;;;;;4939881;29;20200;-93
2021/12/24 07:31:20;;;;;;;16.57;9.57;;;7.30;99.90;;;;;;4939477;29;20579;-94
2021/12/24 07:33:45;;;;;;;20.13;11.37;;;7.40;99.90;;;;;;4939951;29;20192;-94
2021/12/24 07:36:11;;;;;;;16.77;9.87;;;7.40;99.90;;;;;;4939353;29;20193;-94
2021/12/24 07:38:37;;;;;;;20.30;11.87;;;7.40;99.90;;;;;;4939419;29;20221;-93
2021/12/24 07:41:04;;;;;;;18.13;10.73;;;7.50;99.90;;;;;;4940380;29;20193;-93
2021/12/24 07:43:30;;;;;;;17.07;10.10;;;7.50;99.90;;;;;;4943809;29;20193;-93
2021/12/24 07:45:57;;;;;;;17.23;9.93;;;7.60;99.90;;;;;;4943408;29;20228;-92
2021/12/24 07:48:31;;;;;;;18.40;10.73;;;7.50;99.90;;;;;;4943573;29;20189;-92
2021/12/24 07:53:25;;;;;;;14.90;8.90;;;7.60;99.90;;;;;;4960919;29;20244;-93
2021/12/24 07:55:56;;;;;;;15.37;9.60;;;7.80;99.90;;;;;;4943461;29;20613;-93
2021/12/24 07:58:22;;;;;;;11.73;8.00;;;7.70;99.90;;;;;;4943583;29;20221;-94
2021/12/24 08:00:48;;;;;;;10.33;7.70;;;7.60;99.90;;;;;;4943288;29;20239;-94
2021/12/24 08:03:14;;;;;;;11.43;7.70;;;7.70;99.90;;;;;;4942626;29;20200;-93
2021/12/24 08:05:42;;;;;;;14.03;8.37;;;7.60;99.90;;;;;;4943187;29;20204;-93
2021/12/24 08:08:10;;;;;;;13.73;8.37;;;7.60;99.90;;;;;;4943082;29;20189;-94
2021/12/24 08:10:37;;;;;;;14.90;9.33;;;7.60;99.90;;;;;;4943141;29;20247;-93
2021/12/24 08:13:04;;;;;;;11.97;8.37;;;7.70;99.90;;;;;;4943265;29;20216;-94
2021/12/24 08:15:30;;;;;;;15.57;9.03;;;7.80;99.90;;;;;;4942484;29;20201;-94
2021/12/24 08:17:56;;;;;;;14.83;9.33;;;7.70;99.90;;;;;;4942517;29;20173;-93
2021/12/24 08:20:24;;;;;;;13.93;9.17;;;7.60;99.90;;;;;;4942984;29;20651;-94
2021/12/24 08:22:54;;;;;;;15.27;9.73;;;7.70;99.90;;;;;;4942921;29;20194;-93
2021/12/24 08:25:21;;;;;;;15.53;9.43;;;7.70;99.90;;;;;;4943196;29;20256;-94
2021/12/24 08:27:47;;;;;;;16.70;10.03;;;7.80;99.90;;;;;;4951762;28;20187;-91
2021/12/24 08:30:13;;;;;;;13.23;9.00;;;7.70;99.90;;;;;;4969690;28;20232;-92
2021/12/24 08:32:41;;;;;;;17.67;9.97;;;7.80;99.90;;;;;;4950115;28;20185;-93
2021/12/24 08:35:13;;;;;;;17.50;10.10;;;7.80;99.90;;;;;;4952799;28;20264;-93
2021/12/24 08:37:41;;;;;;;14.53;9.27;;;7.70;99.90;;;;;;4968068;28;20174;-93
2021/12/24 08:40:07;;;;;;;17.37;9.50;;;7.80;99.90;;;;;;4947874;29;20213;-94
2021/12/24 08:42:33;;;;;;;16.17;9.47;;;7.80;99.90;;;;;;4948005;28;20184;-94
2021/12/24 08:44:59;;;;;;;16.63;9.87;;;7.80;99.90;;;;;;4954710;29;20220;-92
2021/12/24 08:47:25;;;;;;;17.67;10.33;;;7.80;99.90;;;;;;4939543;29;20560;-94
2021/12/24 08:49:51;;;;;;;15.73;9.40;;;7.80;99.90;;;;;;4942711;29;20527;-93
2021/12/24 08:52:16;;;;;;;16.53;10.30;;;7.80;99.90;;;;;;4942067;29;20197;-93
2021/12/24 08:54:42;;;;;;;16.13;10.30;;;7.80;99.90;;;;;;4942461;29;20569;-93
2021/12/24 08:57:08;;;;;;;15.27;9.83;;;7.90;99.90;;;;;;4940286;29;20232;-92
2021/12/24 08:59:34;;;;;;;14.10;8.90;;;7.90;99.90;;;;;;4937355;29;20265;-93
2021/12/24 09:02:01;;;;;;;13.37;8.27;;;7.90;99.90;;;;;;4958430;29;20205;-93
2021/12/24 09:04:27;;;;;;;14.40;8.33;;;7.90;99.90;;;;;;4959044;29;20197;-94
2021/12/24 09:06:53;;;;;;;13.53;8.30;;;7.90;99.90;;;;;;4941673;29;20201;-93
2021/12/24 09:09:19;;;;;;;12.10;8.20;;;7.90;99.90;;;;;;4959074;29;20197;-94
2021/12/24 09:11:46;;;;;;;13.47;8.37;;;8.00;99.90;;;;;;4942022;29;20200;-94
2021/12/24 09:14:17;;;;;;;12.90;8.40;;;7.90;99.90;;;;;;4941314;28;20193;-92
2021/12/24 09:16:44;;;;;;;11.93;7.90;;;8.00;99.90;;;;;;4941827;29;20204;-94
2021/12/24 09:19:14;;;;;;;13.40;8.83;;;8.00;99.90;;;;;;4941783;29;20277;-93
2021/12/24 09:21:39;;;;;;;15.03;9.57;;;8.00;99.90;;;;;;4941837;29;20193;-92
2021/12/24 09:24:07;;;;;;;14.23;9.10;;;8.00;99.90;;;;;;4941872;29;20225;-93
2021/12/24 09:26:33;;;;;;;15.43;9.13;;;8.10;99.90;;;;;;4941435;29;20212;-94
2021/12/24 09:29:02;;;;;;;13.33;8.30;;;8.00;99.90;;;;;;4941654;29;20247;-92
2021/12/24 09:31:29;;;;;;;14.80;8.33;;;8.10;99.90;;;;;;4941283;29;20189;-93
2021/12/24 09:33:56;;;;;;;14.13;8.53;;;8.10;99.90;;;;;;4941547;29;20225;-92
2021/12/24 09:36:25;;;;;;;13.40;8.80;;;8.10;99.90;;;;;;4941366;29;20629;-93
2021/12/24 09:38:53;;;;;;;12.23;8.77;;;8.10;99.90;;;;;;4941226;29;20221;-92
2021/12/24 09:41:19;;;;;;;13.10;9.07;;;8.10;99.90;;;;;;4940914;29;20279;-94
2021/12/24 09:43:45;;;;;;;14.03;8.93;;;8.10;99.90;;;;;;4938931;29;20204;-93
2021/12/24 09:46:14;;;;;;;13.30;7.67;;;8.20;99.90;;;;;;4940231;29;20193;-94
2021/12/24 09:48:41;;;;;;;13.80;8.40;;;8.30;99.90;;;;;;4942156;29;20200;-95
2021/12/24 09:51:07;;;;;;;15.60;9.10;;;8.20;99.90;;;;;;4941468;29;20193;-94
2021/12/24 09:53:36;;;;;;;14.97;9.50;;;8.20;99.90;;;;;;4941752;29;20567;-95
2021/12/24 09:56:03;;;;;;;19.23;10.40;;;8.20;99.90;;;;;;4941005;29;20244;-94
2021/12/24 09:58:29;;;;;;;16.60;9.60;;;8.20;99.90;;;;;;4941340;29;20770;-95
2021/12/24 10:00:55;;;;;;;14.47;9.53;;;8.30;99.90;;;;;;4941814;29;20275;-95
2021/12/24 10:03:28;;;;;;;13.57;9.43;;;8.20;99.90;;;;;;4941849;29;20209;-94
2021/12/24 10:05:55;;;;;;;12.77;9.57;;;8.30;99.90;;;;;;4940638;29;20185;-93
2021/12/24 10:08:22;;;;;;;15.10;9.77;;;8.30;99.90;;;;;;4941305;29;20534;-94
2021/12/24 10:11:00;;;;;;;18.73;10.37;;;8.30;99.90;;;;;;4941339;29;20272;-95
2021/12/24 10:13:30;;;;;;;16.83;10.43;;;8.30;99.90;;;;;;4957921;29;20181;-94
2021/12/24 10:16:17;;;;;;;13.77;9.93;;;8.40;99.90;;;;;;4940997;29;20182;-94
2021/12/24 10:18:59;;;;;;;13.77;9.07;;;8.40;99.90;;;;;;4922044;29;20221;-94
2021/12/24 10:21:30;;;;;;;16.87;9.03;;;8.40;99.90;;;;;;4952917;29;20623;-94
2021/12/24 10:24:26;;;;;;;10.40;7.63;;;8.40;99.90;;;;;;4940913;29;20217;-94
2021/12/24 10:26:56;;;;;;;11.60;7.67;;;8.40;99.90;;;;;;4950900;29;20192;-94
2021/12/24 10:29:38;;;;;;;11.97;7.97;;;8.40;99.90;;;;;;4940749;29;20617;-94
2021/12/24 10:32:11;;;;;;;12.93;7.90;;;8.50;99.90;;;;;;4940452;29;20185;-94
2021/12/24 10:34:37;;;;;;;9.43;7.47;;;8.40;99.90;;;;;;4925126;29;20185;-94
2021/12/24 10:37:12;;;;;;;10.93;6.97;;;8.30;99.90;;;;;;4940226;29;20220;-94
2021/12/24 10:39:42;;;;;;;10.03;6.73;;;8.30;99.90;;;;;;4940132;29;20382;-94
2021/12/24 10:42:19;;;;;;;10.17;5.93;;;8.40;99.90;;;;;;4940412;29;20178;-95
2021/12/24 10:44:46;;;;;;;7.53;6.13;;;8.40;99.90;;;;;;4926335;29;20177;-94
2021/12/24 10:47:28;;;;;;;7.70;5.90;;;8.40;99.90;;;;;;4940438;29;20271;-94
2021/12/24 10:53:19;;;;;;;9.33;5.80;;;8.50;99.90;;;;;;4905734;29;20629;-94
2021/12/24 10:55:51;;;;;;;9.30;5.83;;;8.50;99.90;;;;;;4932905;29;20189;-94
2021/12/24 10:58:23;;;;;;;8.53;5.50;;;8.40;99.90;;;;;;4940158;29;20213;-93
2021/12/24 11:00:54;;;;;;;6.00;5.33;;;8.40;99.90;;;;;;4941146;29;20229;-93
2021/12/24 11:03:34;;;;;;;10.07;4.97;;;8.50;99.90;;;;;;4942220;29;20188;-95
2021/12/24 11:06:08;;;;;;;7.13;4.90;;;8.50;99.90;;;;;;4941406;29;20192;-94
2021/12/24 11:08:36;;;;;;;5.87;4.97;;;8.60;99.90;;;;;;4922187;29;20186;-94
2021/12/24 11:11:06;;;;;;;8.20;4.50;;;8.60;99.90;;;;;;4930948;29;20223;-94
2021/12/24 11:13:40;;;;;;;5.40;4.47;;;8.60;99.90;;;;;;4939711;29;20669;-93
2021/12/24 11:16:09;;;;;;;6.63;4.80;;;8.60;99.90;;;;;;4938345;29;20215;-92
2021/12/24 11:18:41;;;;;;;5.83;4.47;;;8.70;99.90;;;;;;4937214;29;20271;-94
2021/12/24 11:21:19;;;;;;;2.57;2.30;;;8.70;99.90;;;;;;4933155;29;20683;-93
2021/12/24 11:23:45;;;;;;;0.63;0.60;;;8.60;99.90;;;;;;4930694;29;20185;-92
2021/12/24 11:26:21;;;;;;;1.30;1.03;;;8.10;99.90;;;;;;4956134;29;20228;-93
2021/12/24 11:28:47;;;;;;;2.03;0.90;;;7.70;99.90;;;;;;4938732;29;20629;-94
2021/12/24 11:31:17;;;;;;;2.70;0.70;;;7.30;99.90;;;;;;4941906;29;20181;-95
2021/12/24 11:33:44;;;;;;;0.63;0.60;;;7.20;99.90;;;;;;4957938;29;20226;-93
2021/12/24 11:36:14;;;;;;;3.17;2.10;;;6.90;99.90;;;;;;4938710;29;20276;-94
2021/12/24 11:38:46;;;;;;;3.23;2.03;;;6.60;99.90;;;;;;4929611;23;20238;-96
2021/12/24 11:41:15;;;;;;;1.10;0.80;;;6.40;99.90;;;;;;4938841;29;20189;-96
2021/12/24 11:43:44;;;;;;;1.10;0.80;;;6.30;99.90;;;;;;4905491;29;20267;-95
2021/12/24 11:46:15;;;;;;;0.70;0.40;;;6.20;99.90;;;;;;4914014;29;20186;-96
2021/12/24 11:48:41;;;;;;;3.20;2.37;;;6.10;99.90;;;;;;4905064;29;20550;-95
2021/12/24 11:51:23;;;;;;;2.80;2.00;;;6.10;99.90;;;;;;4903730;29;20186;-93
2021/12/24 11:53:51;;;;;;;0.90;0.80;;;6.00;99.90;;;;;;4903452;29;20246;-95
2021/12/24 11:56:22;;;;;;;0.50;0.50;;;6.00;99.90;;;;;;4902650;29;20281;-96
2021/12/24 11:58:52;;;;;;;0.40;0.30;;;5.90;99.90;;;;;;4902709;29;20210;-94
2021/12/24 12:01:36;;;;;;;0.60;0.50;;;5.80;99.90;;;;;;4911992;29;20201;-93
2021/12/24 12:04:16;;;;;;;1.00;0.80;;;5.80;99.90;;;;;;4904458;29;20189;-94
2021/12/24 12:06:42;;;;;;;1.20;0.67;;;5.70;99.90;;;;;;4891434;29;20209;-93
2021/12/24 12:09:10;;;;;;;2.30;0.90;;;5.60;99.90;;;;;;4923623;29;20205;-95
2021/12/24 12:11:39;;;;;;;1.37;0.80;;;5.60;99.90;;;;;;4917117;29;20239;-95
2021/12/24 12:14:13;;;;;;;1.13;0.80;;;5.50;99.90;;;;;;4904376;29;20586;-96
2021/12/24 12:16:39;;;;;;;1.43;0.80;;;5.50;99.90;;;;;;4921315;29;20533;-96
2021/12/24 12:22:30;;;;;;;0.60;0.47;;;5.50;99.90;;;;;;4920732;29;20179;-93
2021/12/24 12:25:01;;;;;;;0.60;0.60;;;5.50;99.90;;;;;;4899533;29;20519;-93
2021/12/24 12:27:29;;;;;;;0.70;0.60;;;5.50;99.90;;;;;;4912274;29;20201;-93
2021/12/24 12:29:55;;;;;;;1.80;1.00;;;5.50;99.90;;;;;;4922191;29;20218;-94
2021/12/24 12:32:38;;;;;;;0.70;0.70;;;5.40;99.90;;;;;;4912782;29;20183;-94
2021/12/24 12:35:04;;;;;;;1.00;0.90;;;5.40;99.90;;;;;;4904346;29;20186;-94
2021/12/24 12:37:53;;;;;;;0.50;0.50;;;5.40;99.90;;;;;;4919676;29;20487;-94
2021/12/24 12:40:19;;;;;;;2.93;1.13;;;5.40;99.90;;;;;;4908116;29;20230;-94
2021/12/24 12:42:57;;;;;;;1.17;1.00;;;5.40;99.90;;;;;;4920491;29;20557;-96
2021/12/24 12:45:32;;;;;;;1.33;0.80;;;5.30;99.90;;;;;;4918869;29;20194;-95
2021/12/24 12:48:00;;;;;;;1.50;0.93;;;5.30;99.90;;;;;;4907116;29;20217;-94
2021/12/24 12:50:28;;;;;;;0.80;0.80;;;5.20;99.90;;;;;;4904847;29;20246;-92
2021/12/24 12:53:22;;;;;;;0.40;0.33;;;5.20;99.90;;;;;;4906765;29;20313;-93
2021/12/24 12:55:48;;;;;;;0.40;0.30;;;5.10;99.90;;;;;;4902417;29;20218;-92
2021/12/24 12:58:25;;;;;;;2.27;1.33;;;5.00;99.90;;;;;;4903049;29;20219;-91
2021/12/24 13:01:16;;;;;;;4.77;2.57;;;4.90;99.90;;;;;;4901596;29;20195;-93
2021/12/24 13:04:09;;;;;;;4.47;2.37;;;4.70;99.90;;;;;;4902958;29;20195;-94
2021/12/24 13:06:41;;;;;;;1.10;0.90;;;4.60;99.90;;;;;;4921798;29;20238;-92
2021/12/24 13:09:11;;;;;;;2.57;1.50;;;4.50;99.90;;;;;;4925012;29;20205;-94
2021/12/24 13:11:44;;;;;;;0.53;0.50;;;4.40;99.90;;;;;;4903607;29;20201;-94
2021/12/24 13:14:11;;;;;;;2.37;1.33;;;4.40;99.90;;;;;;4918760;29;20197;-92
2021/12/24 13:16:53;;;;;;;2.00;1.30;;;4.30;99.90;;;;;;4921730;29;20197;-93
2021/12/24 13:25:10;;;;;;;1.30;1.10;;;4.30;99.90;;;;;;4940782;29;20205;-94
2021/12/24 13:27:52;;;;;;;2.10;1.43;;;4.20;99.90;;;;;;4904541;29;20634;-93
2021/12/24 13:30:31;;;;;;;1.50;0.93;;;4.20;99.90;;;;;;4904209;29;20622;-93
2021/12/24 13:33:02;;;;;;;1.20;1.10;;;4.10;99.90;;;;;;4904759;29;20221;-92
2021/12/24 13:35:38;;;;;;;1.47;0.93;;;4.10;99.90;;;;;;4904411;29;20194;-93
2021/12/24 13:38:10;;;;;;;1.13;0.77;;;4.00;99.90;;;;;;4904266;29;20191;-94
2021/12/24 13:40:36;;;;;;;2.47;1.70;;;4.00;99.90;;;;;;4903603;29;20226;-93
2021/12/24 13:43:06;;;;;;;0.80;0.70;;;4.00;99.90;;;;;;4904100;29;20318;-93
2021/12/24 13:45:38;;;;;;;1.90;0.97;;;4.00;99.90;;;;;;4920791;29;20673;-93
2021/12/24 13:48:14;;;;;;;0.80;0.70;;;3.90;99.90;;;;;;4904328;29;20201;-94
2021/12/24 13:56:03;;;;;;;0.50;0.40;;;3.70;99.90;;;;;;4925975;29;20201;-94
2021/12/24 13:58:29;;;;;;;0.40;0.40;;;3.60;99.90;;;;;;4907954;29;20224;-94
2021/12/24 14:00:59;;;;;;;0.50;0.50;;;3.60;99.90;;;;;;4912479;29;20214;-94
2021/12/24 14:03:27;;;;;;;1.03;0.67;;;3.50;99.90;;;;;;4910106;29;20191;-93
2021/12/24 14:05:56;;;;;;;2.50;1.43;;;3.40;99.90;;;;;;4908775;29;20294;-93
2021/12/24 14:08:27;;;;;;;0.57;0.50;;;3.30;99.90;;;;;;4910663;29;20202;-93
2021/12/24 14:11:14;;;;;;;0.47;0.43;;;3.20;99.90;;;;;;4908210;29;20281;-93
2021/12/24 14:13:50;;;;;;;0.47;0.47;;;3.20;99.90;;;;;;4907889;29;20183;-93
2021/12/24 14:19:18;;;;;;;0.90;0.50;;;3.10;99.90;;;;;;4902507;29;20261;-93
2021/12/24 14:21:46;;;;;;;0.60;0.53;;;3.00;99.90;;;;;;4906398;29;20183;-93
2021/12/24 14:24:18;;;;;;;0.60;0.60;;;3.00;99.90;;;;;;4919081;29;20193;-94
2021/12/24 14:27:05;;;;;;;0.50;0.50;;;2.90;99.90;;;;;;4919513;29;20257;-93
2021/12/24 14:29:31;;;;;;;1.20;1.10;;;2.90;99.90;;;;;;4903578;29;20400;-94
2021/12/24 14:32:04;;;;;;;1.40;1.07;;;2.70;99.90;;;;;;4918691;29;20601;-93
2021/12/24 14:34:35;;;;;;;1.00;0.80;;;2.60;99.90;;;;;;4918910;29;20270;-93
2021/12/24 14:37:05;;;;;;;2.17;1.30;;;2.60;99.90;;;;;;4918490;29;20254;-93
2021/12/24 14:39:39;;;;;;;2.47;1.70;;;2.60;99.90;;;;;;4902420;29;20242;-94
2021/12/24 14:42:30;;;;;;;3.07;2.20;;;2.50;99.90;;;;;;4901945;29;20287;-94
2021/12/24 14:45:30;;;;;;;1.50;1.37;;;2.50;99.90;;;;;;4902654;29;20342;-94
2021/12/24 14:48:16;;;;;;;15.03;7.73;;;2.60;99.90;;;;;;4918634;29;20232;-94
2021/12/24 14:50:53;;;;;;;6.13;3.00;;;2.60;99.90;;;;;;4902849;29;20285;-93
2021/12/24 14:53:22;;;;;;;5.77;3.83;;;2.60;99.90;;;;;;4918586;29;20597;-93
2021/12/24 14:55:47;;;;;;;5.17;3.47;;;2.60;99.90;;;;;;4902176;29;20201;-93
2021/12/24 14:58:25;;;;;;;90.83;38.33;;;2.60;99.90;;;;;;4918149;29;20195;-93
2021/12/24 15:01:37;;;;;;;10.00;5.13;;;2.60;99.90;;;;;;4933993;29;20194;-92
2021/12/24 15:04:05;;;;;;;13.30;6.53;;;2.50;99.90;;;;;;4933247;29;20182;-93
2021/12/24 15:06:36;;;;;;;1.73;1.30;;;2.40;99.90;;;;;;4902471;29;20200;-93
2021/12/24 15:09:11;;;;;;;7.67;6.23;;;2.30;99.90;;;;;;4902501;29;20190;-93
2021/12/24 15:11:54;;;;;;;3.07;2.77;;;2.30;99.90;;;;;;4919179;29;20192;-94
2021/12/24 15:14:26;;;;;;;5.00;3.80;;;2.30;99.90;;;;;;4902402;29;20614;-94